Time;durP1;ratioP1;P1;durP2;ratioP2;P2;SDS_P1;SDS_P2;PMS_P1;PMS_P2;Temp;Humidity;BMP_temperature;BMP_pressure;BME280_temperature;BME280_humidity;BME280_pressure;Samples;Min_cycle;Max_cycle;Signal;HPM_P1;HPM_P2
2024/02/25 00:00:12;;;;;;;2.00;0.85;;;4.30;99.90;;;;;;5063837;28;20036;-49
2024/02/25 00:02:41;;;;;;;2.58;1.02;;;4.20;99.90;;;;;;5047449;28;20052;-49
2024/02/25 00:05:07;;;;;;;2.75;0.50;;;4.20;99.90;;;;;;5060960;28;20167;-49
2024/02/25 00:07:32;;;;;;;4.35;0.90;;;4.20;99.90;;;;;;5061314;28;20178;-48
2024/02/25 00:09:58;;;;;;;5.60;0.90;;;4.20;99.90;;;;;;5060957;28;20156;-55
2024/02/25 00:12:24;;;;;;;1.00;0.50;;;4.20;99.90;;;;;;5061394;28;20025;-54
2024/02/25 00:14:49;;;;;;;2.17;1.10;;;4.20;99.90;;;;;;5059584;28;20032;-53
2024/02/25 00:17:15;;;;;;;2.15;0.80;;;4.20;99.90;;;;;;5059923;28;20024;-54
2024/02/25 00:19:40;;;;;;;2.13;0.90;;;4.20;99.90;;;;;;5059286;28;20074;-51
2024/02/25 00:22:06;;;;;;;2.25;0.95;;;4.10;99.90;;;;;;5059721;28;20032;-52
2024/02/25 00:24:32;;;;;;;1.42;0.88;;;4.10;99.90;;;;;;5060490;28;20028;-51
2024/02/25 00:26:57;;;;;;;2.72;0.90;;;4.20;99.90;;;;;;5061509;28;20056;-53
2024/02/25 00:29:23;;;;;;;2.50;1.00;;;4.20;99.90;;;;;;5060513;28;20033;-53
2024/02/25 00:31:48;;;;;;;1.92;0.90;;;4.20;99.90;;;;;;5061959;28;20201;-56
2024/02/25 00:34:14;;;;;;;4.03;1.00;;;4.20;99.90;;;;;;5061578;28;20419;-51
2024/02/25 00:36:39;;;;;;;4.88;1.00;;;4.20;99.90;;;;;;5059868;28;20364;-55
2024/02/25 00:39:05;;;;;;;1.13;0.68;;;4.20;99.90;;;;;;5062147;28;20104;-51
2024/02/25 00:41:30;;;;;;;1.40;0.60;;;4.20;99.90;;;;;;5061438;28;20059;-55
2024/02/25 00:43:56;;;;;;;1.83;0.77;;;4.30;99.90;;;;;;5062072;28;20110;-52
2024/02/25 00:46:22;;;;;;;2.05;0.73;;;4.30;99.90;;;;;;5061084;28;20036;-53
2024/02/25 00:48:47;;;;;;;2.67;0.73;;;4.30;99.90;;;;;;5060928;28;20032;-56
2024/02/25 00:51:13;;;;;;;2.08;0.93;;;4.30;99.90;;;;;;5059328;28;20116;-53
2024/02/25 00:53:38;;;;;;;2.15;0.73;;;4.30;99.90;;;;;;5061275;28;20465;-50
2024/02/25 00:56:05;;;;;;;2.50;0.80;;;4.30;99.90;;;;;;5061927;28;20031;-50
2024/02/25 00:58:30;;;;;;;1.23;0.68;;;4.30;99.90;;;;;;5061050;28;20035;-50
2024/02/25 01:00:56;;;;;;;3.78;0.70;;;4.20;99.90;;;;;;5061336;28;20150;-51
2024/02/25 01:03:21;;;;;;;0.77;0.60;;;4.30;99.90;;;;;;5046114;28;20056;-54
2024/02/25 01:05:47;;;;;;;1.50;0.60;;;4.30;99.90;;;;;;5061310;28;20032;-50
2024/02/25 01:08:12;;;;;;;1.90;0.70;;;4.30;99.90;;;;;;5060154;28;20379;-52
2024/02/25 01:10:40;;;;;;;0.98;0.60;;;4.40;99.90;;;;;;5061321;28;20416;-53
2024/02/25 01:13:06;;;;;;;1.33;0.47;;;4.40;99.90;;;;;;5061253;28;21289;-55
2024/02/25 01:15:31;;;;;;;0.90;0.60;;;4.40;99.90;;;;;;5060896;28;20032;-51
2024/02/25 01:17:57;;;;;;;2.50;0.70;;;4.40;99.90;;;;;;5061930;28;20051;-51
2024/02/25 01:20:22;;;;;;;2.13;0.63;;;4.50;99.90;;;;;;5061461;28;20078;-53
2024/02/25 01:22:48;;;;;;;1.85;0.70;;;4.50;99.90;;;;;;5060153;28;20025;-52
2024/02/25 01:25:14;;;;;;;1.05;0.63;;;4.60;99.90;;;;;;5060371;28;20328;-50
2024/02/25 01:27:39;;;;;;;2.50;0.80;;;4.70;99.90;;;;;;5062897;28;20036;-51
2024/02/25 01:30:05;;;;;;;1.45;0.95;;;4.60;99.90;;;;;;5063467;28;20037;-56
2024/02/25 01:32:31;;;;;;;2.47;0.80;;;4.70;99.90;;;;;;5064992;28;20078;-55
2024/02/25 01:34:57;;;;;;;1.38;0.60;;;4.70;99.90;;;;;;5065004;28;20514;-51
2024/02/25 01:37:23;;;;;;;1.55;0.80;;;4.70;99.90;;;;;;5065219;28;20138;-55
2024/02/25 01:39:48;;;;;;;1.65;0.60;;;4.70;99.90;;;;;;5064483;28;20063;-50
2024/02/25 01:42:22;;;;;;;2.63;0.60;;;4.70;99.90;;;;;;5064645;28;20092;-52
2024/02/25 01:44:59;;;;;;;1.77;1.00;;;4.70;99.90;;;;;;5063897;28;20052;-54
2024/02/25 01:47:25;;;;;;;1.80;0.98;;;4.70;99.90;;;;;;5049383;28;20501;-55
2024/02/25 01:49:51;;;;;;;1.48;0.73;;;4.80;99.90;;;;;;5064783;28;20036;-52
2024/02/25 01:52:19;;;;;;;2.78;0.70;;;4.80;99.90;;;;;;5063926;28;20390;-50
2024/02/25 01:54:45;;;;;;;1.42;0.68;;;4.90;99.90;;;;;;5064701;28;20025;-55
2024/02/25 01:57:12;;;;;;;6.43;1.17;;;5.00;99.90;;;;;;5064823;28;20448;-53
2024/02/25 01:59:38;;;;;;;1.33;0.80;;;5.00;99.90;;;;;;5064546;28;20025;-53
2024/02/25 02:02:04;;;;;;;2.00;0.90;;;5.00;99.90;;;;;;5063087;28;20490;-53
2024/02/25 02:04:29;;;;;;;4.03;0.70;;;5.10;99.90;;;;;;5049148;28;20053;-53
2024/02/25 02:06:56;;;;;;;1.73;0.60;;;5.10;99.90;;;;;;5063598;28;20033;-55
2024/02/25 02:09:22;;;;;;;2.33;0.70;;;5.10;99.90;;;;;;5064269;28;20094;-52
2024/02/25 02:11:58;;;;;;;1.33;0.82;;;5.10;99.90;;;;;;5064080;28;20028;-55
2024/02/25 02:14:23;;;;;;;2.00;0.70;;;5.10;99.90;;;;;;5063510;28;20028;-50
2024/02/25 02:16:49;;;;;;;2.50;0.55;;;5.10;99.90;;;;;;5063294;28;20027;-52
2024/02/25 02:19:14;;;;;;;4.53;1.30;;;5.10;99.90;;;;;;5063274;28;20052;-51
2024/02/25 02:21:40;;;;;;;1.08;0.45;;;5.10;99.90;;;;;;5064177;28;20028;-52
2024/02/25 02:24:06;;;;;;;1.50;0.70;;;5.10;99.90;;;;;;5064338;28;20036;-51
2024/02/25 02:26:32;;;;;;;1.13;0.55;;;5.10;99.90;;;;;;5063869;28;20047;-53
2024/02/25 02:28:58;;;;;;;1.30;0.70;;;5.10;99.90;;;;;;5062934;28;20483;-54
2024/02/25 02:31:23;;;;;;;1.33;0.70;;;5.10;99.90;;;;;;5064152;28;20029;-53
2024/02/25 02:33:49;;;;;;;2.65;1.65;;;5.10;99.90;;;;;;5064006;28;20032;-53
2024/02/25 02:36:15;;;;;;;3.40;1.02;;;5.10;99.90;;;;;;5063198;28;20042;-54
2024/02/25 02:38:42;;;;;;;0.80;0.50;;;5.10;99.90;;;;;;5063347;28;20024;-54
2024/02/25 02:41:08;;;;;;;3.78;1.27;;;5.10;99.90;;;;;;5063705;28;20013;-53
2024/02/25 02:43:33;;;;;;;1.55;0.43;;;5.10;99.90;;;;;;5063175;28;20043;-50
2024/02/25 02:45:59;;;;;;;8.30;0.73;;;5.00;99.90;;;;;;5063422;28;20056;-51
2024/02/25 02:48:24;;;;;;;1.25;0.50;;;5.00;99.90;;;;;;5063200;28;20032;-52
2024/02/25 02:50:50;;;;;;;1.17;0.73;;;5.00;99.90;;;;;;5061851;28;20513;-54
2024/02/25 02:53:16;;;;;;;2.05;0.82;;;5.00;99.90;;;;;;5063670;28;20582;-52
2024/02/25 02:55:41;;;;;;;0.95;0.68;;;4.90;99.90;;;;;;5063586;28;20544;-51
2024/02/25 02:58:07;;;;;;;0.93;0.43;;;4.90;99.90;;;;;;5063214;28;20071;-53
2024/02/25 03:00:34;;;;;;;1.83;0.80;;;4.80;99.90;;;;;;5061625;28;20037;-50
2024/02/25 03:03:00;;;;;;;1.52;0.70;;;4.80;99.90;;;;;;5062444;28;20039;-57
2024/02/25 03:05:25;;;;;;;1.20;0.50;;;4.70;99.90;;;;;;5046954;28;20048;-54
2024/02/25 03:07:53;;;;;;;1.60;0.98;;;4.70;99.90;;;;;;5062910;28;20032;-53
2024/02/25 03:10:19;;;;;;;2.30;0.90;;;4.60;99.90;;;;;;5061926;28;20033;-51
2024/02/25 03:12:45;;;;;;;1.50;0.57;;;4.60;99.90;;;;;;5060790;28;20498;-53
2024/02/25 03:15:12;;;;;;;0.47;0.40;;;4.60;99.90;;;;;;5061633;28;20028;-52
2024/02/25 03:17:41;;;;;;;1.25;0.80;;;4.60;99.90;;;;;;5063048;28;20096;-52
2024/02/25 03:20:08;;;;;;;2.00;0.85;;;4.60;99.90;;;;;;5063811;28;20027;-51
2024/02/25 03:22:34;;;;;;;1.23;0.50;;;4.70;99.90;;;;;;5062944;28;20040;-51
2024/02/25 03:24:59;;;;;;;1.00;0.70;;;4.80;99.90;;;;;;5061589;28;20052;-51
2024/02/25 03:27:25;;;;;;;2.13;0.80;;;4.80;99.90;;;;;;5062331;28;20705;-52
2024/02/25 03:29:51;;;;;;;1.52;0.85;;;4.80;99.90;;;;;;5062698;28;20163;-53
2024/02/25 03:32:16;;;;;;;3.15;0.80;;;4.80;99.90;;;;;;5047239;28;20105;-55
2024/02/25 03:34:42;;;;;;;1.02;0.32;;;4.90;99.90;;;;;;5062664;28;20039;-53
2024/02/25 03:37:07;;;;;;;0.73;0.50;;;4.80;99.90;;;;;;5062410;28;20086;-51
2024/02/25 03:39:33;;;;;;;0.45;0.40;;;4.90;99.90;;;;;;5061854;28;20043;-50
2024/02/25 03:41:59;;;;;;;1.40;0.70;;;4.80;99.90;;;;;;5062294;28;20047;-53
2024/02/25 03:44:26;;;;;;;1.77;0.80;;;4.80;99.90;;;;;;5061777;28;20371;-50
2024/02/25 03:46:51;;;;;;;4.88;0.60;;;4.80;99.90;;;;;;5061852;28;20166;-52
2024/02/25 03:49:17;;;;;;;1.80;0.73;;;4.80;99.90;;;;;;5061591;28;20390;-55
2024/02/25 03:51:43;;;;;;;1.95;0.65;;;4.80;99.90;;;;;;5061627;28;20075;-59
2024/02/25 03:54:09;;;;;;;1.00;0.50;;;4.90;99.90;;;;;;5047113;28;20031;-53
2024/02/25 03:56:35;;;;;;;3.90;0.60;;;4.80;99.90;;;;;;5061634;28;20498;-52
2024/02/25 03:59:00;;;;;;;1.17;0.50;;;4.90;99.90;;;;;;5061414;28;20051;-51
2024/02/25 04:01:26;;;;;;;4.80;0.73;;;4.90;99.90;;;;;;5061017;28;20108;-51
2024/02/25 04:03:52;;;;;;;1.63;0.80;;;4.90;99.90;;;;;;5062007;28;20020;-54
2024/02/25 04:06:17;;;;;;;1.30;0.60;;;4.90;99.90;;;;;;5046802;28;20085;-56
2024/02/25 04:08:43;;;;;;;3.30;0.82;;;5.00;99.90;;;;;;5062680;28;20025;-52
2024/02/25 04:11:08;;;;;;;0.52;0.40;;;5.00;99.90;;;;;;5062165;28;20037;-52
2024/02/25 04:13:34;;;;;;;1.75;0.35;;;4.90;99.90;;;;;;5062161;28;20035;-54
2024/02/25 04:15:59;;;;;;;0.63;0.32;;;4.90;99.90;;;;;;5061372;28;20039;-52
2024/02/25 04:18:25;;;;;;;0.32;0.30;;;4.90;99.90;;;;;;5061299;28;20031;-54
2024/02/25 04:20:50;;;;;;;0.90;0.43;;;4.90;99.90;;;;;;5061996;28;20036;-57
2024/02/25 04:23:16;;;;;;;3.13;0.80;;;4.90;99.90;;;;;;5062143;28;20033;-55
2024/02/25 04:25:42;;;;;;;0.98;0.65;;;4.90;99.90;;;;;;5061248;28;20032;-52
2024/02/25 04:28:07;;;;;;;0.75;0.47;;;4.90;99.90;;;;;;5062074;28;21022;-54
2024/02/25 04:30:33;;;;;;;0.82;0.30;;;5.00;99.90;;;;;;5061807;28;20039;-54
2024/02/25 04:32:59;;;;;;;0.75;0.50;;;4.90;99.90;;;;;;5045538;28;20036;-54
2024/02/25 04:35:26;;;;;;;1.25;0.57;;;5.00;99.90;;;;;;5062051;28;20078;-54
2024/02/25 04:37:52;;;;;;;2.35;0.65;;;5.00;99.90;;;;;;5061603;28;20021;-50
2024/02/25 04:40:17;;;;;;;1.02;0.50;;;5.00;99.90;;;;;;5059592;28;20141;-54
2024/02/25 04:42:44;;;;;;;3.00;0.60;;;5.00;99.90;;;;;;5060827;28;20032;-54
2024/02/25 04:45:10;;;;;;;1.92;0.50;;;5.00;99.90;;;;;;5061411;28;20036;-56
2024/02/25 04:47:35;;;;;;;4.90;0.70;;;5.00;99.90;;;;;;5061452;28;20059;-51
2024/02/25 04:50:03;;;;;;;1.48;0.70;;;5.00;99.90;;;;;;5061501;28;20037;-53
2024/02/25 04:52:29;;;;;;;1.75;0.70;;;5.00;99.90;;;;;;5061143;28;20027;-51
2024/02/25 04:54:54;;;;;;;1.10;0.40;;;5.00;99.90;;;;;;5061530;28;20029;-52
2024/02/25 04:57:20;;;;;;;4.40;0.52;;;5.00;99.90;;;;;;5062109;28;20025;-56
2024/02/25 04:59:46;;;;;;;1.50;0.77;;;5.10;99.90;;;;;;5061744;28;20039;-54
2024/02/25 05:02:12;;;;;;;2.65;0.80;;;5.00;99.90;;;;;;5062338;28;20072;-51
2024/02/25 05:04:39;;;;;;;1.83;0.70;;;5.00;99.90;;;;;;5050858;28;20051;-52
2024/02/25 05:07:05;;;;;;;0.90;0.40;;;5.00;99.90;;;;;;5065180;28;20494;-51
2024/02/25 05:09:30;;;;;;;2.65;0.45;;;5.00;99.90;;;;;;5064924;28;20033;-53
2024/02/25 05:11:56;;;;;;;2.97;0.70;;;5.00;99.90;;;;;;5064366;28;20539;-52
2024/02/25 05:14:22;;;;;;;1.25;0.70;;;5.00;99.90;;;;;;5065377;28;20029;-53
2024/02/25 05:16:47;;;;;;;3.17;0.95;;;5.00;99.90;;;;;;5065749;28;20036;-54
2024/02/25 05:19:13;;;;;;;1.23;0.63;;;5.00;99.90;;;;;;5064204;28;20513;-53
2024/02/25 05:21:42;;;;;;;2.70;1.02;;;5.00;99.90;;;;;;5065485;28;20024;-56
2024/02/25 05:24:08;;;;;;;1.42;0.95;;;5.10;99.90;;;;;;5066790;28;20032;-50
2024/02/25 05:26:34;;;;;;;1.85;0.75;;;5.00;99.90;;;;;;5066704;28;20044;-54
2024/02/25 05:29:00;;;;;;;1.13;0.80;;;5.00;99.90;;;;;;5065136;28;20590;-53
2024/02/25 05:31:25;;;;;;;1.13;0.70;;;5.00;99.90;;;;;;5064974;28;20078;-54
2024/02/25 05:33:51;;;;;;;5.97;1.42;;;4.90;99.90;;;;;;5064663;28;20024;-55
2024/02/25 05:36:17;;;;;;;2.85;1.35;;;5.00;99.90;;;;;;5064507;28;20032;-53
2024/02/25 05:38:43;;;;;;;0.93;0.80;;;5.00;99.90;;;;;;5064684;28;20376;-55
2024/02/25 05:41:12;;;;;;;1.42;0.95;;;4.90;99.90;;;;;;5063694;28;20036;-51
2024/02/25 05:43:37;;;;;;;2.00;0.80;;;4.90;99.90;;;;;;5064509;28;20124;-50
2024/02/25 05:46:03;;;;;;;1.30;0.70;;;5.00;99.90;;;;;;5063325;28;20526;-51
2024/02/25 05:48:29;;;;;;;2.72;1.10;;;4.90;99.90;;;;;;5063449;28;20099;-52
2024/02/25 05:50:54;;;;;;;1.55;0.77;;;4.90;99.90;;;;;;5063507;28;20063;-55
2024/02/25 05:53:20;;;;;;;5.93;0.88;;;4.90;99.90;;;;;;5064107;28;20119;-56
2024/02/25 05:55:47;;;;;;;1.42;0.80;;;4.90;99.90;;;;;;5063857;28;20033;-52
2024/02/25 05:58:13;;;;;;;3.70;1.00;;;4.90;99.90;;;;;;5064216;28;20021;-51
2024/02/25 06:00:39;;;;;;;4.07;0.95;;;4.90;99.90;;;;;;5063914;28;20036;-54
2024/02/25 06:03:04;;;;;;;2.13;1.10;;;4.90;99.90;;;;;;5064017;28;20028;-53
2024/02/25 06:05:30;;;;;;;2.28;1.13;;;4.90;99.90;;;;;;5048786;28;20176;-52
2024/02/25 06:07:59;;;;;;;1.73;0.93;;;4.90;99.90;;;;;;5063948;28;20028;-55
2024/02/25 06:10:25;;;;;;;1.27;0.70;;;4.80;99.90;;;;;;5064110;28;20027;-50
2024/02/25 06:12:51;;;;;;;1.33;0.95;;;4.90;99.90;;;;;;5086360;22;20049;-54
2024/02/25 06:15:17;;;;;;;3.53;0.98;;;4.80;99.90;;;;;;5064585;28;20043;-53
2024/02/25 06:17:42;;;;;;;2.17;1.27;;;4.70;99.90;;;;;;5065818;28;20032;-50
2024/02/25 06:20:10;;;;;;;1.42;0.75;;;4.80;99.90;;;;;;5064966;28;20042;-53
2024/02/25 06:22:40;;;;;;;2.38;1.20;;;4.80;99.90;;;;;;5079489;28;20032;-51
2024/02/25 06:25:06;;;;;;;3.42;1.13;;;4.80;99.90;;;;;;5082452;28;20446;-50
2024/02/25 06:27:35;;;;;;;3.45;1.20;;;4.80;99.90;;;;;;5085389;28;20034;-51
2024/02/25 06:30:02;;;;;;;4.03;0.63;;;4.80;99.90;;;;;;5083478;28;20156;-51
2024/02/25 06:32:28;;;;;;;2.90;0.93;;;4.80;99.90;;;;;;5087289;28;20028;-54
2024/02/25 06:34:53;;;;;;;1.80;1.17;;;4.80;99.90;;;;;;5084536;28;20028;-53
2024/02/25 06:37:19;;;;;;;4.07;1.10;;;4.80;99.90;;;;;;5084668;28;20089;-51
2024/02/25 06:39:44;;;;;;;1.85;1.13;;;4.80;99.90;;;;;;5084853;28;20546;-52
2024/02/25 06:42:10;;;;;;;1.20;0.88;;;4.80;99.90;;;;;;5082587;28;20054;-51
2024/02/25 06:44:35;;;;;;;1.38;0.82;;;4.80;99.90;;;;;;5083748;28;20041;-50
2024/02/25 06:47:01;;;;;;;3.00;1.25;;;4.90;99.90;;;;;;5084494;28;20024;-55
2024/02/25 06:49:27;;;;;;;2.50;1.60;;;4.90;99.90;;;;;;5082262;28;20028;-52
2024/02/25 06:51:54;;;;;;;2.00;1.20;;;4.90;99.90;;;;;;5084676;28;20107;-54
2024/02/25 06:54:20;;;;;;;2.47;0.90;;;4.90;99.90;;;;;;5084383;28;20016;-51
2024/02/25 06:56:46;;;;;;;2.60;0.80;;;4.90;99.90;;;;;;5083492;28;20020;-52
2024/02/25 06:59:11;;;;;;;1.55;0.68;;;4.90;99.90;;;;;;5083473;28;20047;-52
2024/02/25 07:01:37;;;;;;;1.80;0.88;;;4.90;99.90;;;;;;5084863;28;20521;-52
2024/02/25 07:04:02;;;;;;;2.20;0.80;;;5.00;99.90;;;;;;5085009;28;20032;-50
2024/02/25 07:06:28;;;;;;;1.77;0.82;;;5.00;99.90;;;;;;5069320;28;20055;-51
2024/02/25 07:08:53;;;;;;;4.90;0.93;;;5.00;99.90;;;;;;5084168;28;20032;-54
2024/02/25 07:11:20;;;;;;;1.65;1.05;;;5.00;99.90;;;;;;5083027;28;20024;-54
2024/02/25 07:13:48;;;;;;;2.63;1.05;;;5.10;99.90;;;;;;5085357;28;20062;-50
2024/02/25 07:16:13;;;;;;;2.45;0.88;;;5.20;99.90;;;;;;5084722;28;20028;-54
2024/02/25 07:18:39;;;;;;;0.93;0.50;;;5.30;99.90;;;;;;5084708;28;20059;-51
2024/02/25 07:21:06;;;;;;;1.38;0.47;;;5.30;99.90;;;;;;5084501;28;20035;-50
2024/02/25 07:23:32;;;;;;;1.30;0.65;;;5.30;99.90;;;;;;5085185;28;20020;-49
2024/02/25 07:25:58;;;;;;;1.70;0.70;;;5.40;99.90;;;;;;5084674;28;20056;-53
2024/02/25 07:28:24;;;;;;;1.40;0.85;;;5.40;99.90;;;;;;5084103;28;20067;-50
2024/02/25 07:30:50;;;;;;;1.15;0.68;;;5.50;99.90;;;;;;5083017;28;20032;-53
2024/02/25 07:33:16;;;;;;;1.77;0.80;;;5.60;99.90;;;;;;5083148;28;20025;-51
2024/02/25 07:35:41;;;;;;;2.25;0.52;;;5.70;99.90;;;;;;5083278;28;20035;-53
2024/02/25 07:38:07;;;;;;;0.50;0.50;;;5.70;99.90;;;;;;5082618;28;20035;-53
2024/02/25 07:40:33;;;;;;;1.25;0.80;;;5.80;99.90;;;;;;5083682;28;20056;-52
2024/02/25 07:42:58;;;;;;;1.25;0.60;;;5.80;99.90;;;;;;5084556;28;20081;-52
2024/02/25 07:45:24;;;;;;;4.13;0.93;;;5.90;99.90;;;;;;5084191;28;20027;-52
2024/02/25 07:47:49;;;;;;;0.82;0.77;;;5.90;99.90;;;;;;5085379;28;20530;-50
2024/02/25 07:50:15;;;;;;;1.42;0.63;;;5.90;99.90;;;;;;5082453;28;20111;-49
2024/02/25 07:52:40;;;;;;;1.83;0.77;;;5.90;99.90;;;;;;5083153;28;20059;-52
2024/02/25 07:55:08;;;;;;;1.10;0.45;;;6.00;99.90;;;;;;5082356;28;20028;-49
2024/02/25 07:57:35;;;;;;;1.77;0.90;;;6.10;99.90;;;;;;5084442;28;20072;-49
2024/02/25 08:00:01;;;;;;;0.70;0.47;;;6.20;99.90;;;;;;5085363;28;20520;-50
2024/02/25 08:02:26;;;;;;;1.20;0.50;;;6.20;99.90;;;;;;5080617;28;20031;-53
2024/02/25 08:04:52;;;;;;;2.25;1.40;;;6.30;99.90;;;;;;5091724;28;20027;-48
2024/02/25 08:07:18;;;;;;;9.63;4.07;;;6.40;99.90;;;;;;5048792;28;21362;-52
2024/02/25 08:09:44;;;;;;;16.55;5.13;;;6.50;99.90;;;;;;5043623;28;20041;-51
2024/02/25 08:12:09;;;;;;;4.53;1.85;;;6.60;99.90;;;;;;5046140;28;20044;-52
2024/02/25 08:14:35;;;;;;;7.72;3.38;;;6.60;99.90;;;;;;5046627;28;20033;-49
2024/02/25 08:17:00;;;;;;;3.85;1.80;;;6.80;99.90;;;;;;5047735;28;20025;-51
2024/02/25 08:19:26;;;;;;;2.75;1.73;;;6.80;99.90;;;;;;5043951;28;20076;-52
2024/02/25 08:21:51;;;;;;;2.15;0.95;;;6.80;99.90;;;;;;5040600;28;20060;-51
2024/02/25 08:24:17;;;;;;;1.30;0.90;;;6.80;99.90;;;;;;5046292;28;20171;-50
2024/02/25 08:26:46;;;;;;;0.40;0.30;;;6.80;99.90;;;;;;5043415;28;20091;-51
2024/02/25 08:29:11;;;;;;;0.93;0.70;;;6.80;99.90;;;;;;5047652;28;20107;-50
2024/02/25 08:31:37;;;;;;;1.95;0.80;;;6.90;99.90;;;;;;5038100;28;20022;-50
2024/02/25 08:34:03;;;;;;;0.52;0.40;;;7.00;99.90;;;;;;5046424;28;20033;-51
2024/02/25 08:36:29;;;;;;;3.05;0.82;;;7.30;99.90;;;;;;5046270;28;20029;-51
2024/02/25 08:38:54;;;;;;;1.55;0.63;;;7.30;99.90;;;;;;5045989;28;20111;-51
2024/02/25 08:41:20;;;;;;;1.63;0.47;;;7.50;99.90;;;;;;5084671;28;20481;-52
2024/02/25 08:43:45;;;;;;;1.85;0.90;;;7.60;99.90;;;;;;5068564;28;20039;-53
2024/02/25 08:46:11;;;;;;;0.77;0.50;;;7.90;99.90;;;;;;5085206;28;20459;-51
2024/02/25 08:48:36;;;;;;;1.10;0.52;;;7.80;99.90;;;;;;5085230;28;20389;-52
2024/02/25 08:51:02;;;;;;;43.70;13.10;;;7.90;99.90;;;;;;5087859;28;20028;-49
2024/02/25 08:53:28;;;;;;;9.27;2.95;;;8.00;99.90;;;;;;5086405;28;20028;-51
2024/02/25 08:55:53;;;;;;;3.80;1.38;;;7.90;99.90;;;;;;5085548;28;20080;-51
2024/02/25 08:58:19;;;;;;;35.50;9.57;;;8.00;99.90;;;;;;5089757;28;20486;-50
2024/02/25 09:00:45;;;;;;;4.13;1.80;;;8.00;99.90;;;;;;5086352;28;20052;-50
2024/02/25 09:03:11;;;;;;;2.00;0.88;;;8.20;99.90;;;;;;5089690;28;20643;-50
2024/02/25 09:05:37;;;;;;;20.10;5.72;;;8.20;99.90;;;;;;5085905;28;20032;-50
2024/02/25 09:08:03;;;;;;;6.10;1.55;;;8.30;99.90;;;;;;5085856;28;20029;-50
2024/02/25 09:10:28;;;;;;;5.78;1.63;;;8.30;99.90;;;;;;5090013;28;20701;-50
2024/02/25 09:12:56;;;;;;;2.83;1.50;;;8.20;99.90;;;;;;5089404;28;20028;-52
2024/02/25 09:15:22;;;;;;;1.38;0.68;;;8.30;99.90;;;;;;5081673;28;20019;-52
2024/02/25 09:17:47;;;;;;;0.80;0.45;;;8.30;99.90;;;;;;5082221;28;20488;-50
2024/02/25 09:20:13;;;;;;;1.75;0.47;;;8.20;99.90;;;;;;5088933;28;20039;-50
2024/02/25 09:22:39;;;;;;;1.60;0.80;;;8.20;99.90;;;;;;5078420;28;20035;-51
2024/02/25 09:25:04;;;;;;;0.35;0.35;;;8.20;99.90;;;;;;5083846;28;20436;-50
2024/02/25 09:27:30;;;;;;;1.05;0.30;;;8.60;99.90;;;;;;5089504;28;20066;-51
2024/02/25 09:29:56;;;;;;;0.50;0.32;;;9.00;99.90;;;;;;5084072;28;20025;-50
2024/02/25 09:32:22;;;;;;;0.40;0.20;;;9.20;99.90;;;;;;5080584;28;20020;-51
2024/02/25 09:34:47;;;;;;;1.10;0.40;;;9.30;99.90;;;;;;5082407;28;20012;-50
2024/02/25 09:37:13;;;;;;;0.70;0.40;;;9.60;99.90;;;;;;5083057;28;20474;-52
2024/02/25 09:39:40;;;;;;;1.77;1.08;;;9.80;99.90;;;;;;5082227;28;20028;-50
2024/02/25 09:42:06;;;;;;;0.63;0.45;;;9.90;99.90;;;;;;5081806;28;20399;-52
2024/02/25 09:44:34;;;;;;;1.08;0.80;;;9.70;99.90;;;;;;5081508;28;20032;-52
2024/02/25 09:47:01;;;;;;;0.90;0.60;;;9.70;99.90;;;;;;5082798;28;20028;-53
2024/02/25 09:49:28;;;;;;;3.67;1.65;;;10.00;99.90;;;;;;5087338;28;20028;-51
2024/02/25 09:51:54;;;;;;;10.10;4.47;;;10.20;99.90;;;;;;5087743;28;20112;-50
2024/02/25 09:54:20;;;;;;;28.00;11.57;;;10.90;99.90;;;;;;5084988;28;20157;-53
2024/02/25 09:56:49;;;;;;;2.85;1.30;;;11.30;99.90;;;;;;5084901;28;20507;-51
2024/02/25 09:59:15;;;;;;;1.08;0.80;;;11.80;99.90;;;;;;5086070;28;20035;-51
2024/02/25 10:01:47;;;;;;;2.05;0.80;;;12.40;99.90;;;;;;5086241;28;20036;-54
2024/02/25 10:04:13;;;;;;;0.60;0.50;;;12.80;99.90;;;;;;5086362;28;20057;-51
2024/02/25 10:06:39;;;;;;;0.60;0.60;;;13.20;99.90;;;;;;5086421;28;20033;-51
2024/02/25 10:09:08;;;;;;;0.80;0.43;;;13.20;99.30;;;;;;5085131;28;20038;-53
2024/02/25 10:11:34;;;;;;;1.20;0.82;;;12.90;99.50;;;;;;5086970;28;20039;-51
2024/02/25 10:14:00;;;;;;;1.08;0.80;;;12.20;99.90;;;;;;5087751;28;20516;-52
2024/02/25 10:16:25;;;;;;;1.75;0.43;;;11.80;99.90;;;;;;5085813;28;20039;-52
2024/02/25 10:18:52;;;;;;;4.43;0.90;;;11.60;99.90;;;;;;5087866;28;20012;-51
2024/02/25 10:21:18;;;;;;;1.75;0.70;;;11.40;99.90;;;;;;5086256;28;20036;-52
2024/02/25 10:23:44;;;;;;;3.38;1.40;;;11.20;99.90;;;;;;5087381;28;20028;-50
2024/02/25 10:26:26;;;;;;;1.90;1.02;;;11.00;99.90;;;;;;5085784;28;20028;-53
2024/02/25 10:29:05;;;;;;;25.25;11.05;;;10.40;99.90;;;;;;5087197;28;20028;-50
2024/02/25 10:31:32;;;;;;;4.47;1.60;;;10.00;99.90;;;;;;5084734;28;20032;-51
2024/02/25 10:33:58;;;;;;;14.20;6.57;;;9.80;99.90;;;;;;5087407;28;20024;-49
2024/02/25 10:36:27;;;;;;;4.68;2.03;;;9.70;99.90;;;;;;5086073;28;20547;-50
2024/02/25 10:38:56;;;;;;;2.67;1.13;;;9.70;99.90;;;;;;5087281;28;20028;-53
2024/02/25 10:41:23;;;;;;;3.03;1.05;;;9.90;99.90;;;;;;5085884;28;20024;-50
2024/02/25 10:43:53;;;;;;;3.95;1.95;;;10.10;99.90;;;;;;5085310;28;20117;-50
2024/02/25 10:46:44;;;;;;;4.63;2.22;;;10.10;99.90;;;;;;5083402;28;20024;-50
2024/02/25 10:49:14;;;;;;;8.80;3.40;;;10.20;99.90;;;;;;5083183;28;20031;-51
2024/02/25 10:51:40;;;;;;;4.68;1.73;;;10.00;99.90;;;;;;5079663;28;20516;-54
2024/02/25 10:54:09;;;;;;;0.57;0.40;;;10.10;99.90;;;;;;5084746;28;20016;-50
2024/02/25 10:56:38;;;;;;;1.40;0.93;;;10.30;99.90;;;;;;5084525;28;20039;-51
2024/02/25 10:59:07;;;;;;;3.53;1.25;;;10.40;99.90;;;;;;5083653;28;20090;-50
2024/02/25 11:01:33;;;;;;;3.10;1.33;;;10.50;99.90;;;;;;5082566;28;20028;-52
2024/02/25 11:03:59;;;;;;;6.35;3.15;;;10.60;99.90;;;;;;5081692;28;20033;-49
2024/02/25 11:06:39;;;;;;;14.93;7.15;;;10.40;99.90;;;;;;5084857;28;20031;-49
2024/02/25 11:09:14;;;;;;;8.73;4.03;;;10.30;99.90;;;;;;5087487;28;20103;-50
2024/02/25 11:11:44;;;;;;;2.65;1.20;;;10.30;99.90;;;;;;5083745;28;20028;-50
2024/02/25 11:14:16;;;;;;;2.78;1.30;;;10.40;99.90;;;;;;5085701;28;20159;-50
2024/02/25 11:16:49;;;;;;;6.47;2.20;;;10.60;99.90;;;;;;5085957;28;20089;-50
2024/02/25 11:19:16;;;;;;;3.65;1.20;;;10.70;99.90;;;;;;5083987;28;20028;-52
2024/02/25 11:21:41;;;;;;;1.55;0.82;;;10.70;99.90;;;;;;5085407;28;20245;-50
2024/02/25 11:24:12;;;;;;;4.57;1.80;;;10.50;99.90;;;;;;5086184;28;20491;-49
2024/02/25 11:26:42;;;;;;;4.53;1.63;;;10.50;99.90;;;;;;5085668;28;20031;-52
2024/02/25 11:29:21;;;;;;;7.30;3.85;;;10.30;99.90;;;;;;5080950;28;20042;-50
2024/02/25 11:31:58;;;;;;;4.10;1.63;;;10.10;99.90;;;;;;5082075;28;20020;-51
2024/02/25 11:34:34;;;;;;;2.45;1.50;;;10.10;99.90;;;;;;5083743;28;20043;-51
2024/02/25 11:37:05;;;;;;;1.58;0.70;;;9.80;99.90;;;;;;5082231;28;20462;-51
2024/02/25 11:39:34;;;;;;;1.05;0.70;;;9.80;99.90;;;;;;5083403;28;20024;-54
2024/02/25 11:42:05;;;;;;;5.60;0.85;;;10.00;99.90;;;;;;5082003;28;20555;-51
2024/02/25 11:44:32;;;;;;;3.92;1.20;;;10.10;99.90;;;;;;5084275;28;20031;-50
2024/02/25 11:47:08;;;;;;;1.40;0.57;;;10.20;99.90;;;;;;5082452;28;20165;-50
2024/02/25 11:49:34;;;;;;;1.52;0.73;;;10.30;99.90;;;;;;5082990;28;20044;-50
2024/02/25 11:52:00;;;;;;;1.08;0.50;;;10.50;99.90;;;;;;5083501;28;20039;-49
2024/02/25 11:54:27;;;;;;;1.20;0.40;;;10.30;99.90;;;;;;5083451;28;20754;-51
2024/02/25 11:56:53;;;;;;;0.57;0.50;;;10.30;99.90;;;;;;5081945;28;20033;-53
2024/02/25 11:59:19;;;;;;;2.10;1.30;;;10.20;99.90;;;;;;5083082;28;20036;-52
2024/02/25 12:01:46;;;;;;;0.70;0.30;;;10.20;99.90;;;;;;5082853;28;20024;-50
2024/02/25 12:04:16;;;;;;;2.63;0.93;;;10.10;99.90;;;;;;5083410;28;20055;-50
2024/02/25 12:06:42;;;;;;;4.00;1.88;;;10.00;99.90;;;;;;5084462;28;20038;-51
2024/02/25 12:09:07;;;;;;;0.63;0.50;;;10.00;99.90;;;;;;5083679;28;20032;-50
2024/02/25 12:11:37;;;;;;;2.35;1.70;;;10.20;99.90;;;;;;5081913;28;20936;-50
2024/02/25 12:14:16;;;;;;;3.17;0.85;;;10.20;99.90;;;;;;5084395;28;20039;-50
2024/02/25 12:16:42;;;;;;;0.50;0.35;;;10.30;99.90;;;;;;5086854;28;21192;-51
2024/02/25 12:19:10;;;;;;;1.77;0.55;;;10.50;99.90;;;;;;5085287;28;20028;-50
2024/02/25 12:21:36;;;;;;;3.53;1.40;;;10.70;99.90;;;;;;5085126;28;20036;-51
2024/02/25 12:24:04;;;;;;;1.88;0.52;;;10.80;99.90;;;;;;5085113;28;20031;-51
2024/02/25 12:26:46;;;;;;;2.58;1.30;;;10.80;99.90;;;;;;5081856;28;20133;-51
2024/02/25 12:29:12;;;;;;;2.38;1.02;;;10.60;99.90;;;;;;5082953;28;20028;-50
2024/02/25 12:31:37;;;;;;;1.02;0.43;;;10.50;99.90;;;;;;5082965;28;20035;-50
2024/02/25 12:34:03;;;;;;;2.97;0.85;;;10.50;99.90;;;;;;5083810;28;20450;-53
2024/02/25 12:36:29;;;;;;;2.50;1.40;;;10.50;99.90;;;;;;5080529;28;20032;-49
2024/02/25 12:38:54;;;;;;;7.65;2.75;;;10.60;99.90;;;;;;5081304;28;20032;-51
2024/02/25 12:41:20;;;;;;;4.70;2.30;;;10.70;99.30;;;;;;5081068;28;20036;-53
2024/02/25 12:43:51;;;;;;;0.80;0.60;;;10.80;99.80;;;;;;5083290;28;20482;-53
2024/02/25 12:46:18;;;;;;;1.83;0.85;;;11.00;99.60;;;;;;5081199;28;20109;-52
2024/02/25 12:48:43;;;;;;;2.95;0.70;;;11.20;99.40;;;;;;5081904;28;20056;-51
2024/02/25 12:51:14;;;;;;;1.45;0.55;;;11.30;99.50;;;;;;5081524;28;20081;-51